sensor_id;sensor_type;location;lat;lon;timestamp;P1;durP1;ratioP1;P2;durP2;ratioP2
65275;SDS011;51875;49.994;14.052;2023-03-01T00:00:09;31.15;;;13.63;;
65275;SDS011;51875;49.994;14.052;2023-03-01T00:01:36;31.58;;;13.10;;
65275;SDS011;51875;49.994;14.052;2023-03-01T00:02:52;34.15;;;13.10;;
65275;SDS011;51875;49.994;14.052;2023-03-01T00:04:08;40.17;;;14.82;;
65275;SDS011;51875;49.994;14.052;2023-03-01T00:05:23;33.05;;;13.05;;
65275;SDS011;51875;49.994;14.052;2023-03-01T00:06:39;28.77;;;12.73;;
65275;SDS011;51875;49.994;14.052;2023-03-01T00:07:58;31.02;;;12.77;;
65275;SDS011;51875;49.994;14.052;2023-03-01T00:09:14;33.55;;;12.45;;
65275;SDS011;51875;49.994;14.052;2023-03-01T00:10:30;36.40;;;14.13;;
65275;SDS011;51875;49.994;14.052;2023-03-01T00:11:45;35.60;;;14.35;;
65275;SDS011;51875;49.994;14.052;2023-03-01T00:13:01;33.00;;;14.27;;
65275;SDS011;51875;49.994;14.052;2023-03-01T00:14:17;35.83;;;14.60;;
65275;SDS011;51875;49.994;14.052;2023-03-01T00:15:33;43.97;;;15.93;;
65275;SDS011;51875;49.994;14.052;2023-03-01T00:16:50;38.63;;;15.38;;
65275;SDS011;51875;49.994;14.052;2023-03-01T00:18:06;42.67;;;15.95;;
65275;SDS011;51875;49.994;14.052;2023-03-01T00:19:21;37.08;;;14.82;;
65275;SDS011;51875;49.994;14.052;2023-03-01T00:20:37;42.53;;;16.20;;
65275;SDS011;51875;49.994;14.052;2023-03-01T00:21:52;47.88;;;17.10;;
65275;SDS011;51875;49.994;14.052;2023-03-01T00:23:08;36.50;;;15.18;;
65275;SDS011;51875;49.994;14.052;2023-03-01T00:24:24;41.70;;;15.00;;
65275;SDS011;51875;49.994;14.052;2023-03-01T00:25:43;39.50;;;14.93;;
65275;SDS011;51875;49.994;14.052;2023-03-01T00:26:58;37.60;;;15.02;;
65275;SDS011;51875;49.994;14.052;2023-03-01T00:28:14;40.05;;;15.85;;
65275;SDS011;51875;49.994;14.052;2023-03-01T00:29:30;41.60;;;15.90;;
65275;SDS011;51875;49.994;14.052;2023-03-01T00:30:46;42.65;;;16.02;;
65275;SDS011;51875;49.994;14.052;2023-03-01T00:32:02;35.75;;;14.82;;
65275;SDS011;51875;49.994;14.052;2023-03-01T00:33:18;37.25;;;15.32;;
65275;SDS011;51875;49.994;14.052;2023-03-01T00:34:33;35.70;;;15.55;;
65275;SDS011;51875;49.994;14.052;2023-03-01T00:35:49;41.03;;;16.70;;
65275;SDS011;51875;49.994;14.052;2023-03-01T00:37:04;39.08;;;15.73;;
65275;SDS011;51875;49.994;14.052;2023-03-01T00:38:20;40.00;;;14.50;;
65275;SDS011;51875;49.994;14.052;2023-03-01T00:39:36;36.83;;;15.77;;
65275;SDS011;51875;49.994;14.052;2023-03-01T00:40:51;37.38;;;14.88;;
65275;SDS011;51875;49.994;14.052;2023-03-01T00:42:07;39.28;;;16.48;;
65275;SDS011;51875;49.994;14.052;2023-03-01T00:43:23;40.15;;;14.43;;
65275;SDS011;51875;49.994;14.052;2023-03-01T00:44:38;37.45;;;15.13;;
65275;SDS011;51875;49.994;14.052;2023-03-01T00:45:54;43.90;;;16.35;;
65275;SDS011;51875;49.994;14.052;2023-03-01T00:47:10;34.83;;;13.35;;
65275;SDS011;51875;49.994;14.052;2023-03-01T00:48:26;35.00;;;14.20;;
65275;SDS011;51875;49.994;14.052;2023-03-01T00:49:41;35.05;;;13.07;;
65275;SDS011;51875;49.994;14.052;2023-03-01T00:50:56;31.38;;;12.60;;
65275;SDS011;51875;49.994;14.052;2023-03-01T00:52:12;34.58;;;14.25;;
65275;SDS011;51875;49.994;14.052;2023-03-01T00:53:28;34.67;;;13.00;;
65275;SDS011;51875;49.994;14.052;2023-03-01T00:54:43;42.67;;;16.15;;
65275;SDS011;51875;49.994;14.052;2023-03-01T00:55:59;56.70;;;19.23;;
65275;SDS011;51875;49.994;14.052;2023-03-01T00:57:15;43.97;;;16.33;;
65275;SDS011;51875;49.994;14.052;2023-03-01T00:58:31;46.38;;;17.50;;
65275;SDS011;51875;49.994;14.052;2023-03-01T00:59:46;41.28;;;15.52;;
65275;SDS011;51875;49.994;14.052;2023-03-01T01:01:35;43.20;;;15.48;;
65275;SDS011;51875;49.994;14.052;2023-03-01T01:02:45;40.05;;;14.02;;
65275;SDS011;51875;49.994;14.052;2023-03-01T01:04:05;49.65;;;15.77;;
65275;SDS011;51875;49.994;14.052;2023-03-01T01:05:25;41.00;;;14.75;;
65275;SDS011;51875;49.994;14.052;2023-03-01T01:06:42;40.55;;;13.88;;
65275;SDS011;51875;49.994;14.052;2023-03-01T01:08:00;35.22;;;13.25;;
65275;SDS011;51875;49.994;14.052;2023-03-01T01:09:16;41.17;;;15.38;;
65275;SDS011;51875;49.994;14.052;2023-03-01T01:10:35;41.72;;;15.27;;
65275;SDS011;51875;49.994;14.052;2023-03-01T01:11:51;38.40;;;14.73;;
65275;SDS011;51875;49.994;14.052;2023-03-01T01:13:06;32.67;;;14.05;;
65275;SDS011;51875;49.994;14.052;2023-03-01T01:14:22;36.55;;;14.35;;
65275;SDS011;51875;49.994;14.052;2023-03-01T01:15:38;42.85;;;14.90;;
65275;SDS011;51875;49.994;14.052;2023-03-01T01:16:54;37.72;;;16.15;;
65275;SDS011;51875;49.994;14.052;2023-03-01T01:18:10;44.45;;;17.05;;
65275;SDS011;51875;49.994;14.052;2023-03-01T01:19:26;43.85;;;17.88;;
65275;SDS011;51875;49.994;14.052;2023-03-01T01:20:42;48.97;;;18.85;;
65275;SDS011;51875;49.994;14.052;2023-03-01T01:21:57;50.47;;;18.80;;
65275;SDS011;51875;49.994;14.052;2023-03-01T01:23:13;41.35;;;17.52;;
65275;SDS011;51875;49.994;14.052;2023-03-01T01:24:28;47.60;;;17.67;;
65275;SDS011;51875;49.994;14.052;2023-03-01T01:25:44;47.05;;;18.40;;
65275;SDS011;51875;49.994;14.052;2023-03-01T01:27:00;46.40;;;17.92;;
65275;SDS011;51875;49.994;14.052;2023-03-01T01:28:15;42.83;;;17.85;;
65275;SDS011;51875;49.994;14.052;2023-03-01T01:29:31;43.67;;;16.90;;
65275;SDS011;51875;49.994;14.052;2023-03-01T01:30:47;47.15;;;18.58;;
65275;SDS011;51875;49.994;14.052;2023-03-01T01:32:02;43.72;;;17.13;;
65275;SDS011;51875;49.994;14.052;2023-03-01T01:33:18;42.78;;;17.60;;
65275;SDS011;51875;49.994;14.052;2023-03-01T01:34:34;42.60;;;16.45;;
65275;SDS011;51875;49.994;14.052;2023-03-01T01:35:49;41.15;;;15.45;;
65275;SDS011;51875;49.994;14.052;2023-03-01T01:37:05;40.53;;;15.27;;
65275;SDS011;51875;49.994;14.052;2023-03-01T01:38:23;40.92;;;16.65;;
65275;SDS011;51875;49.994;14.052;2023-03-01T01:39:38;41.20;;;16.45;;
65275;SDS011;51875;49.994;14.052;2023-03-01T01:40:54;37.75;;;15.60;;
65275;SDS011;51875;49.994;14.052;2023-03-01T01:42:14;43.88;;;15.88;;
65275;SDS011;51875;49.994;14.052;2023-03-01T01:43:36;41.85;;;15.75;;
65275;SDS011;51875;49.994;14.052;2023-03-01T01:47:04;37.75;;;13.57;;
65275;SDS011;51875;49.994;14.052;2023-03-01T01:48:22;39.88;;;14.27;;
65275;SDS011;51875;49.994;14.052;2023-03-01T01:49:46;34.38;;;13.90;;
65275;SDS011;51875;49.994;14.052;2023-03-01T01:51:07;38.20;;;14.40;;
65275;SDS011;51875;49.994;14.052;2023-03-01T01:52:29;36.92;;;13.95;;
65275;SDS011;51875;49.994;14.052;2023-03-01T01:53:53;38.20;;;14.25;;
65275;SDS011;51875;49.994;14.052;2023-03-01T01:55:24;36.47;;;13.82;;
65275;SDS011;51875;49.994;14.052;2023-03-01T01:56:43;38.13;;;14.10;;
65275;SDS011;51875;49.994;14.052;2023-03-01T01:58:03;34.47;;;13.90;;
65275;SDS011;51875;49.994;14.052;2023-03-01T01:59:23;38.42;;;14.02;;
65275;SDS011;51875;49.994;14.052;2023-03-01T02:00:40;38.25;;;14.98;;
65275;SDS011;51875;49.994;14.052;2023-03-01T02:01:56;39.83;;;15.82;;
65275;SDS011;51875;49.994;14.052;2023-03-01T02:03:16;41.40;;;15.75;;
65275;SDS011;51875;49.994;14.052;2023-03-01T02:04:40;37.40;;;15.15;;
65275;SDS011;51875;49.994;14.052;2023-03-01T02:05:58;35.15;;;14.52;;
65275;SDS011;51875;49.994;14.052;2023-03-01T02:07:22;34.25;;;14.13;;
65275;SDS011;51875;49.994;14.052;2023-03-01T02:08:39;37.13;;;15.57;;
65275;SDS011;51875;49.994;14.052;2023-03-01T02:09:57;36.17;;;15.00;;
65275;SDS011;51875;49.994;14.052;2023-03-01T02:11:13;35.53;;;13.55;;
65275;SDS011;51875;49.994;14.052;2023-03-01T02:12:29;34.75;;;14.40;;
65275;SDS011;51875;49.994;14.052;2023-03-01T02:13:46;39.50;;;14.65;;
65275;SDS011;51875;49.994;14.052;2023-03-01T02:15:03;43.80;;;15.75;;
65275;SDS011;51875;49.994;14.052;2023-03-01T02:16:19;37.95;;;15.00;;
65275;SDS011;51875;49.994;14.052;2023-03-01T02:17:35;35.00;;;14.02;;
65275;SDS011;51875;49.994;14.052;2023-03-01T02:18:52;37.35;;;14.52;;
65275;SDS011;51875;49.994;14.052;2023-03-01T02:23:35;31.75;;;12.95;;
65275;SDS011;51875;49.994;14.052;2023-03-01T02:25:07;36.17;;;13.07;;
65275;SDS011;51875;49.994;14.052;2023-03-01T02:26:45;37.50;;;13.07;;
65275;SDS011;51875;49.994;14.052;2023-03-01T02:29:31;31.65;;;13.57;;
65275;SDS011;51875;49.994;14.052;2023-03-01T02:30:48;35.42;;;13.40;;
65275;SDS011;51875;49.994;14.052;2023-03-01T02:32:24;33.55;;;12.55;;
65275;SDS011;51875;49.994;14.052;2023-03-01T02:33:40;36.22;;;13.85;;
65275;SDS011;51875;49.994;14.052;2023-03-01T02:34:57;38.83;;;14.05;;
65275;SDS011;51875;49.994;14.052;2023-03-01T02:36:15;38.15;;;14.27;;
65275;SDS011;51875;49.994;14.052;2023-03-01T02:37:33;36.80;;;14.10;;
65275;SDS011;51875;49.994;14.052;2023-03-01T02:38:51;33.58;;;13.68;;
65275;SDS011;51875;49.994;14.052;2023-03-01T02:40:12;32.45;;;13.73;;
65275;SDS011;51875;49.994;14.052;2023-03-01T02:41:35;35.78;;;13.52;;
65275;SDS011;51875;49.994;14.052;2023-03-01T02:42:53;31.42;;;12.57;;
65275;SDS011;51875;49.994;14.052;2023-03-01T02:44:11;34.63;;;13.18;;
65275;SDS011;51875;49.994;14.052;2023-03-01T02:45:26;33.30;;;12.55;;
65275;SDS011;51875;49.994;14.052;2023-03-01T02:46:44;36.38;;;12.70;;
65275;SDS011;51875;49.994;14.052;2023-03-01T02:48:02;39.85;;;14.50;;
65275;SDS011;51875;49.994;14.052;2023-03-01T02:49:27;34.47;;;13.48;;
65275;SDS011;51875;49.994;14.052;2023-03-01T02:50:55;34.80;;;13.27;;
65275;SDS011;51875;49.994;14.052;2023-03-01T02:53:58;32.75;;;12.60;;
65275;SDS011;51875;49.994;14.052;2023-03-01T02:55:23;31.67;;;12.63;;
65275;SDS011;51875;49.994;14.052;2023-03-01T02:56:38;31.17;;;13.50;;
65275;SDS011;51875;49.994;14.052;2023-03-01T02:57:55;31.90;;;12.60;;
65275;SDS011;51875;49.994;14.052;2023-03-01T02:59:12;40.42;;;14.20;;
65275;SDS011;51875;49.994;14.052;2023-03-01T03:00:28;35.45;;;13.27;;
65275;SDS011;51875;49.994;14.052;2023-03-01T03:01:50;33.13;;;10.68;;
65275;SDS011;51875;49.994;14.052;2023-03-01T03:03:06;34.22;;;13.35;;
65275;SDS011;51875;49.994;14.052;2023-03-01T03:04:22;37.20;;;13.80;;
65275;SDS011;51875;49.994;14.052;2023-03-01T03:05:38;37.92;;;14.13;;
65275;SDS011;51875;49.994;14.052;2023-03-01T03:06:54;34.38;;;13.02;;
65275;SDS011;51875;49.994;14.052;2023-03-01T03:08:09;33.50;;;12.63;;
65275;SDS011;51875;49.994;14.052;2023-03-01T03:09:26;34.95;;;12.25;;
65275;SDS011;51875;49.994;14.052;2023-03-01T03:10:42;35.28;;;13.13;;
65275;SDS011;51875;49.994;14.052;2023-03-01T03:12:00;28.75;;;12.27;;
65275;SDS011;51875;49.994;14.052;2023-03-01T03:13:16;33.53;;;13.05;;
65275;SDS011;51875;49.994;14.052;2023-03-01T03:14:32;26.33;;;11.18;;
65275;SDS011;51875;49.994;14.052;2023-03-01T03:15:49;32.72;;;12.77;;
65275;SDS011;51875;49.994;14.052;2023-03-01T03:17:05;36.13;;;13.18;;
65275;SDS011;51875;49.994;14.052;2023-03-01T03:18:22;39.17;;;14.27;;
65275;SDS011;51875;49.994;14.052;2023-03-01T03:19:41;33.70;;;11.73;;
65275;SDS011;51875;49.994;14.052;2023-03-01T03:21:00;30.42;;;12.25;;
65275;SDS011;51875;49.994;14.052;2023-03-01T03:22:15;35.25;;;11.55;;
65275;SDS011;51875;49.994;14.052;2023-03-01T03:23:31;31.85;;;11.32;;
65275;SDS011;51875;49.994;14.052;2023-03-01T03:24:47;38.50;;;14.13;;
65275;SDS011;51875;49.994;14.052;2023-03-01T03:26:02;34.45;;;13.15;;
65275;SDS011;51875;49.994;14.052;2023-03-01T03:27:19;32.55;;;12.45;;
65275;SDS011;51875;49.994;14.052;2023-03-01T03:28:34;36.45;;;14.10;;
65275;SDS011;51875;49.994;14.052;2023-03-01T03:29:50;34.45;;;13.25;;
65275;SDS011;51875;49.994;14.052;2023-03-01T03:31:07;32.47;;;14.23;;
65275;SDS011;51875;49.994;14.052;2023-03-01T03:32:23;36.33;;;13.65;;
65275;SDS011;51875;49.994;14.052;2023-03-01T03:33:38;31.45;;;12.15;;
65275;SDS011;51875;49.994;14.052;2023-03-01T03:34:54;37.58;;;14.10;;
65275;SDS011;51875;49.994;14.052;2023-03-01T03:36:13;35.80;;;13.15;;
65275;SDS011;51875;49.994;14.052;2023-03-01T03:37:32;37.42;;;13.82;;
65275;SDS011;51875;49.994;14.052;2023-03-01T03:39:06;32.97;;;13.07;;
65275;SDS011;51875;49.994;14.052;2023-03-01T03:40:22;31.98;;;11.68;;
65275;SDS011;51875;49.994;14.052;2023-03-01T03:41:38;29.33;;;12.02;;
65275;SDS011;51875;49.994;14.052;2023-03-01T03:42:53;33.67;;;12.70;;
65275;SDS011;51875;49.994;14.052;2023-03-01T03:44:09;33.55;;;12.27;;
65275;SDS011;51875;49.994;14.052;2023-03-01T03:45:25;35.78;;;11.85;;
65275;SDS011;51875;49.994;14.052;2023-03-01T03:46:41;36.22;;;12.88;;
65275;SDS011;51875;49.994;14.052;2023-03-01T03:47:56;36.88;;;13.50;;
65275;SDS011;51875;49.994;14.052;2023-03-01T03:49:12;37.13;;;13.88;;
65275;SDS011;51875;49.994;14.052;2023-03-01T03:50:28;36.55;;;13.85;;
65275;SDS011;51875;49.994;14.052;2023-03-01T03:51:45;43.83;;;17.65;;
65275;SDS011;51875;49.994;14.052;2023-03-01T03:53:01;47.45;;;17.20;;
65275;SDS011;51875;49.994;14.052;2023-03-01T03:54:19;44.95;;;17.08;;
65275;SDS011;51875;49.994;14.052;2023-03-01T03:55:35;49.20;;;17.90;;
65275;SDS011;51875;49.994;14.052;2023-03-01T03:56:54;39.08;;;15.50;;
65275;SDS011;51875;49.994;14.052;2023-03-01T03:58:09;47.08;;;16.85;;
65275;SDS011;51875;49.994;14.052;2023-03-01T03:59:26;61.30;;;19.25;;
65275;SDS011;51875;49.994;14.052;2023-03-01T04:00:43;48.80;;;18.00;;
65275;SDS011;51875;49.994;14.052;2023-03-01T04:01:59;53.13;;;19.63;;
65275;SDS011;51875;49.994;14.052;2023-03-01T04:03:16;57.97;;;19.23;;
65275;SDS011;51875;49.994;14.052;2023-03-01T04:04:33;58.72;;;20.05;;
65275;SDS011;51875;49.994;14.052;2023-03-01T04:05:49;63.45;;;20.70;;
65275;SDS011;51875;49.994;14.052;2023-03-01T04:07:05;60.17;;;21.80;;
65275;SDS011;51875;49.994;14.052;2023-03-01T04:08:22;57.88;;;20.63;;
65275;SDS011;51875;49.994;14.052;2023-03-01T04:09:38;53.50;;;19.90;;
65275;SDS011;51875;49.994;14.052;2023-03-01T04:10:58;44.08;;;17.05;;
65275;SDS011;51875;49.994;14.052;2023-03-01T04:12:35;45.22;;;16.08;;
65275;SDS011;51875;49.994;14.052;2023-03-01T04:13:52;38.35;;;15.57;;
65275;SDS011;51875;49.994;14.052;2023-03-01T04:15:09;34.13;;;14.95;;
65275;SDS011;51875;49.994;14.052;2023-03-01T04:16:29;41.50;;;16.35;;
65275;SDS011;51875;49.994;14.052;2023-03-01T04:17:45;40.50;;;15.88;;
65275;SDS011;51875;49.994;14.052;2023-03-01T04:19:02;46.58;;;15.77;;
65275;SDS011;51875;49.994;14.052;2023-03-01T04:20:18;41.50;;;15.82;;
65275;SDS011;51875;49.994;14.052;2023-03-01T04:21:39;39.95;;;13.77;;
65275;SDS011;51875;49.994;14.052;2023-03-01T04:24:25;37.78;;;14.43;;
65275;SDS011;51875;49.994;14.052;2023-03-01T04:27:11;37.60;;;14.38;;
65275;SDS011;51875;49.994;14.052;2023-03-01T04:28:28;35.97;;;14.10;;
65275;SDS011;51875;49.994;14.052;2023-03-01T04:29:51;38.35;;;13.18;;
65275;SDS011;51875;49.994;14.052;2023-03-01T04:31:14;42.42;;;15.23;;
65275;SDS011;51875;49.994;14.052;2023-03-01T04:32:32;38.38;;;14.65;;
65275;SDS011;51875;49.994;14.052;2023-03-01T04:33:50;39.70;;;13.98;;
65275;SDS011;51875;49.994;14.052;2023-03-01T04:35:07;42.25;;;14.18;;
65275;SDS011;51875;49.994;14.052;2023-03-01T04:36:24;36.08;;;14.80;;
65275;SDS011;51875;49.994;14.052;2023-03-01T04:37:41;40.60;;;16.02;;
65275;SDS011;51875;49.994;14.052;2023-03-01T04:38:57;32.70;;;13.32;;
65275;SDS011;51875;49.994;14.052;2023-03-01T04:40:12;39.72;;;14.20;;
65275;SDS011;51875;49.994;14.052;2023-03-01T04:41:31;40.95;;;13.85;;
65275;SDS011;51875;49.994;14.052;2023-03-01T04:42:47;39.78;;;14.88;;
65275;SDS011;51875;49.994;14.052;2023-03-01T04:44:02;34.70;;;14.68;;
65275;SDS011;51875;49.994;14.052;2023-03-01T04:45:19;38.47;;;14.00;;
65275;SDS011;51875;49.994;14.052;2023-03-01T04:46:35;40.88;;;15.30;;
65275;SDS011;51875;49.994;14.052;2023-03-01T04:47:51;39.88;;;15.82;;
65275;SDS011;51875;49.994;14.052;2023-03-01T04:49:07;41.20;;;14.80;;
65275;SDS011;51875;49.994;14.052;2023-03-01T04:50:22;43.92;;;16.70;;
65275;SDS011;51875;49.994;14.052;2023-03-01T04:51:38;44.00;;;16.58;;
65275;SDS011;51875;49.994;14.052;2023-03-01T04:52:54;43.80;;;15.38;;
65275;SDS011;51875;49.994;14.052;2023-03-01T04:54:13;40.67;;;14.00;;
65275;SDS011;51875;49.994;14.052;2023-03-01T04:55:29;38.92;;;13.52;;
65275;SDS011;51875;49.994;14.052;2023-03-01T04:56:44;36.90;;;15.43;;
65275;SDS011;51875;49.994;14.052;2023-03-01T04:58:00;38.22;;;14.63;;
65275;SDS011;51875;49.994;14.052;2023-03-01T04:59:16;36.85;;;14.35;;
65275;SDS011;51875;49.994;14.052;2023-03-01T05:00:32;40.80;;;15.95;;
65275;SDS011;51875;49.994;14.052;2023-03-01T05:01:48;42.92;;;15.57;;
65275;SDS011;51875;49.994;14.052;2023-03-01T05:03:07;38.60;;;14.93;;
65275;SDS011;51875;49.994;14.052;2023-03-01T05:04:24;33.30;;;13.73;;
65275;SDS011;51875;49.994;14.052;2023-03-01T05:05:39;36.70;;;13.52;;
65275;SDS011;51875;49.994;14.052;2023-03-01T05:06:55;37.17;;;14.18;;
65275;SDS011;51875;49.994;14.052;2023-03-01T05:08:14;40.60;;;14.75;;
65275;SDS011;51875;49.994;14.052;2023-03-01T05:09:33;36.03;;;14.27;;
65275;SDS011;51875;49.994;14.052;2023-03-01T05:10:49;36.83;;;13.63;;
65275;SDS011;51875;49.994;14.052;2023-03-01T05:12:07;40.45;;;16.17;;
65275;SDS011;51875;49.994;14.052;2023-03-01T05:13:22;35.97;;;15.02;;
65275;SDS011;51875;49.994;14.052;2023-03-01T05:14:38;37.67;;;15.90;;
65275;SDS011;51875;49.994;14.052;2023-03-01T05:17:10;39.90;;;16.23;;
65275;SDS011;51875;49.994;14.052;2023-03-01T05:18:27;44.95;;;15.32;;
65275;SDS011;51875;49.994;14.052;2023-03-01T05:19:43;41.10;;;15.50;;
65275;SDS011;51875;49.994;14.052;2023-03-01T05:21:03;45.85;;;17.38;;
65275;SDS011;51875;49.994;14.052;2023-03-01T05:22:24;41.50;;;15.15;;
65275;SDS011;51875;49.994;14.052;2023-03-01T05:23:39;38.95;;;15.18;;
65275;SDS011;51875;49.994;14.052;2023-03-01T05:24:56;41.78;;;15.63;;
65275;SDS011;51875;49.994;14.052;2023-03-01T05:26:11;42.17;;;15.43;;
65275;SDS011;51875;49.994;14.052;2023-03-01T05:27:27;41.70;;;14.95;;
65275;SDS011;51875;49.994;14.052;2023-03-01T05:28:44;38.25;;;15.75;;
65275;SDS011;51875;49.994;14.052;2023-03-01T05:30:00;40.25;;;15.77;;
65275;SDS011;51875;49.994;14.052;2023-03-01T05:31:28;38.05;;;14.68;;
65275;SDS011;51875;49.994;14.052;2023-03-01T05:32:47;44.88;;;15.98;;
65275;SDS011;51875;49.994;14.052;2023-03-01T05:34:04;41.95;;;15.30;;
65275;SDS011;51875;49.994;14.052;2023-03-01T05:35:21;39.88;;;14.82;;
65275;SDS011;51875;49.994;14.052;2023-03-01T05:36:37;39.75;;;14.00;;
65275;SDS011;51875;49.994;14.052;2023-03-01T05:37:53;38.40;;;14.32;;
65275;SDS011;51875;49.994;14.052;2023-03-01T05:39:09;45.38;;;16.13;;
65275;SDS011;51875;49.994;14.052;2023-03-01T05:40:24;42.00;;;14.90;;
65275;SDS011;51875;49.994;14.052;2023-03-01T05:41:40;45.97;;;14.77;;
65275;SDS011;51875;49.994;14.052;2023-03-01T05:42:56;43.78;;;15.00;;
65275;SDS011;51875;49.994;14.052;2023-03-01T05:44:12;41.33;;;14.45;;
65275;SDS011;51875;49.994;14.052;2023-03-01T05:45:28;40.78;;;15.80;;
65275;SDS011;51875;49.994;14.052;2023-03-01T05:46:43;44.33;;;15.70;;
65275;SDS011;51875;49.994;14.052;2023-03-01T05:47:59;41.00;;;15.43;;
65275;SDS011;51875;49.994;14.052;2023-03-01T05:49:15;35.63;;;14.65;;
65275;SDS011;51875;49.994;14.052;2023-03-01T05:50:35;35.42;;;13.95;;
65275;SDS011;51875;49.994;14.052;2023-03-01T05:51:52;37.13;;;15.68;;
65275;SDS011;51875;49.994;14.052;2023-03-01T05:53:10;38.38;;;14.02;;
65275;SDS011;51875;49.994;14.052;2023-03-01T05:54:30;41.42;;;14.75;;
65275;SDS011;51875;49.994;14.052;2023-03-01T05:55:46;37.17;;;14.73;;
65275;SDS011;51875;49.994;14.052;2023-03-01T05:57:03;38.85;;;15.10;;
65275;SDS011;51875;49.994;14.052;2023-03-01T05:58:19;41.45;;;14.85;;
65275;SDS011;51875;49.994;14.052;2023-03-01T05:59:35;37.47;;;14.95;;
65275;SDS011;51875;49.994;14.052;2023-03-01T06:00:50;36.50;;;14.18;;
65275;SDS011;51875;49.994;14.052;2023-03-01T06:02:06;38.40;;;15.63;;
65275;SDS011;51875;49.994;14.052;2023-03-01T06:03:21;39.85;;;15.23;;
65275;SDS011;51875;49.994;14.052;2023-03-01T06:04:37;35.15;;;14.55;;
65275;SDS011;51875;49.994;14.052;2023-03-01T06:05:56;34.10;;;14.48;;
65275;SDS011;51875;49.994;14.052;2023-03-01T06:07:12;39.75;;;14.55;;
65275;SDS011;51875;49.994;14.052;2023-03-01T06:08:28;39.38;;;15.40;;
65275;SDS011;51875;49.994;14.052;2023-03-01T06:09:43;41.92;;;15.13;;
65275;SDS011;51875;49.994;14.052;2023-03-01T06:10:59;38.83;;;14.15;;
65275;SDS011;51875;49.994;14.052;2023-03-01T06:12:15;35.65;;;14.13;;
65275;SDS011;51875;49.994;14.052;2023-03-01T06:13:31;40.03;;;14.10;;
65275;SDS011;51875;49.994;14.052;2023-03-01T06:14:46;45.75;;;15.52;;
65275;SDS011;51875;49.994;14.052;2023-03-01T06:16:06;43.20;;;16.55;;
65275;SDS011;51875;49.994;14.052;2023-03-01T06:17:22;39.35;;;14.50;;
65275;SDS011;51875;49.994;14.052;2023-03-01T06:18:37;37.45;;;15.30;;
65275;SDS011;51875;49.994;14.052;2023-03-01T06:19:54;40.33;;;14.95;;
65275;SDS011;51875;49.994;14.052;2023-03-01T06:21:09;45.42;;;16.25;;
65275;SDS011;51875;49.994;14.052;2023-03-01T06:22:25;37.80;;;15.63;;
65275;SDS011;51875;49.994;14.052;2023-03-01T06:23:40;38.10;;;14.82;;
65275;SDS011;51875;49.994;14.052;2023-03-01T06:24:56;44.20;;;15.90;;
65275;SDS011;51875;49.994;14.052;2023-03-01T06:26:11;38.13;;;15.25;;
65275;SDS011;51875;49.994;14.052;2023-03-01T06:27:27;38.97;;;14.13;;
65275;SDS011;51875;49.994;14.052;2023-03-01T06:28:42;39.95;;;15.27;;
65275;SDS011;51875;49.994;14.052;2023-03-01T06:30:01;36.70;;;14.77;;
65275;SDS011;51875;49.994;14.052;2023-03-01T06:31:17;38.78;;;14.05;;
65275;SDS011;51875;49.994;14.052;2023-03-01T06:32:33;40.65;;;15.68;;
65275;SDS011;51875;49.994;14.052;2023-03-01T06:33:48;53.78;;;18.35;;
65275;SDS011;51875;49.994;14.052;2023-03-01T06:35:04;51.13;;;16.20;;
65275;SDS011;51875;49.994;14.052;2023-03-01T06:36:20;41.25;;;15.98;;
65275;SDS011;51875;49.994;14.052;2023-03-01T06:37:36;43.83;;;16.88;;
65275;SDS011;51875;49.994;14.052;2023-03-01T06:38:52;44.70;;;17.77;;
65275;SDS011;51875;49.994;14.052;2023-03-01T06:40:10;58.67;;;19.15;;
65275;SDS011;51875;49.994;14.052;2023-03-01T06:41:26;50.25;;;17.70;;
65275;SDS011;51875;49.994;14.052;2023-03-01T06:42:43;51.72;;;18.17;;
65275;SDS011;51875;49.994;14.052;2023-03-01T06:45:20;44.25;;;16.02;;
65275;SDS011;51875;49.994;14.052;2023-03-01T06:46:36;50.03;;;16.60;;
65275;SDS011;51875;49.994;14.052;2023-03-01T06:47:52;53.35;;;18.27;;
65275;SDS011;51875;49.994;14.052;2023-03-01T06:49:07;43.45;;;16.40;;
65275;SDS011;51875;49.994;14.052;2023-03-01T06:50:24;54.00;;;21.65;;
65275;SDS011;51875;49.994;14.052;2023-03-01T06:51:40;54.08;;;21.33;;
65275;SDS011;51875;49.994;14.052;2023-03-01T06:52:56;55.70;;;20.75;;
65275;SDS011;51875;49.994;14.052;2023-03-01T06:54:12;43.88;;;17.13;;
65275;SDS011;51875;49.994;14.052;2023-03-01T06:55:29;46.30;;;17.83;;
65275;SDS011;51875;49.994;14.052;2023-03-01T06:56:46;43.28;;;15.75;;
65275;SDS011;51875;49.994;14.052;2023-03-01T06:58:02;43.95;;;16.23;;
65275;SDS011;51875;49.994;14.052;2023-03-01T06:59:18;42.75;;;15.55;;
65275;SDS011;51875;49.994;14.052;2023-03-01T07:00:34;37.72;;;15.00;;
65275;SDS011;51875;49.994;14.052;2023-03-01T07:01:49;43.95;;;17.23;;
65275;SDS011;51875;49.994;14.052;2023-03-01T07:03:05;42.90;;;16.83;;
65275;SDS011;51875;49.994;14.052;2023-03-01T07:04:21;48.78;;;17.77;;
65275;SDS011;51875;49.994;14.052;2023-03-01T07:05:36;40.33;;;16.55;;
65275;SDS011;51875;49.994;14.052;2023-03-01T07:06:52;42.83;;;16.60;;
65275;SDS011;51875;49.994;14.052;2023-03-01T07:08:10;43.17;;;16.35;;
65275;SDS011;51875;49.994;14.052;2023-03-01T07:09:25;47.20;;;17.20;;
65275;SDS011;51875;49.994;14.052;2023-03-01T07:10:41;47.03;;;17.65;;
65275;SDS011;51875;49.994;14.052;2023-03-01T07:11:57;46.13;;;17.38;;
65275;SDS011;51875;49.994;14.052;2023-03-01T07:13:13;56.80;;;19.92;;
65275;SDS011;51875;49.994;14.052;2023-03-01T07:14:28;48.55;;;18.52;;
65275;SDS011;51875;49.994;14.052;2023-03-01T07:15:44;52.72;;;18.73;;
65275;SDS011;51875;49.994;14.052;2023-03-01T07:16:59;48.55;;;19.48;;
65275;SDS011;51875;49.994;14.052;2023-03-01T07:18:15;42.83;;;18.50;;
65275;SDS011;51875;49.994;14.052;2023-03-01T07:19:31;47.17;;;19.00;;
65275;SDS011;51875;49.994;14.052;2023-03-01T07:20:46;42.78;;;18.35;;
65275;SDS011;51875;49.994;14.052;2023-03-01T07:22:03;48.80;;;19.23;;
65275;SDS011;51875;49.994;14.052;2023-03-01T07:23:19;47.33;;;17.98;;
65275;SDS011;51875;49.994;14.052;2023-03-01T07:24:34;42.15;;;18.23;;
65275;SDS011;51875;49.994;14.052;2023-03-01T07:25:53;48.80;;;17.75;;
65275;SDS011;51875;49.994;14.052;2023-03-01T07:27:10;40.50;;;16.67;;
65275;SDS011;51875;49.994;14.052;2023-03-01T07:28:25;43.97;;;16.75;;
65275;SDS011;51875;49.994;14.052;2023-03-01T07:29:41;42.40;;;17.80;;
65275;SDS011;51875;49.994;14.052;2023-03-01T07:31:00;33.58;;;14.82;;
65275;SDS011;51875;49.994;14.052;2023-03-01T07:32:19;40.55;;;16.75;;
65275;SDS011;51875;49.994;14.052;2023-03-01T07:33:35;43.42;;;17.90;;
65275;SDS011;51875;49.994;14.052;2023-03-01T07:34:51;48.45;;;18.73;;
65275;SDS011;51875;49.994;14.052;2023-03-01T07:36:06;53.42;;;20.92;;
65275;SDS011;51875;49.994;14.052;2023-03-01T07:37:22;47.92;;;18.33;;
65275;SDS011;51875;49.994;14.052;2023-03-01T07:38:38;53.20;;;23.30;;